createdAt,value
2022-11-10T00:02:12.507Z,9.93
2022-11-10T00:04:58.431Z,9.92
2022-11-10T00:07:44.514Z,10.14
2022-11-10T00:10:30.923Z,10.00
2022-11-10T00:13:17.150Z,10.01
2022-11-10T00:16:24.657Z,10.12
2022-11-10T00:19:11.031Z,9.89
2022-11-10T00:21:57.875Z,10.05
2022-11-10T00:24:44.913Z,9.92
2022-11-10T00:27:33.556Z,9.65
2022-11-10T00:30:19.357Z,9.71
2022-11-10T00:33:05.745Z,9.55
2022-11-10T00:35:54.304Z,9.47
2022-11-10T00:38:40.271Z,9.67
2022-11-10T00:41:26.315Z,9.72
2022-11-10T00:44:12.257Z,9.55
2022-11-10T00:46:58.311Z,9.39
2022-11-10T00:49:44.325Z,9.50
2022-11-10T00:52:30.216Z,9.56
2022-11-10T00:55:16.582Z,9.71
2022-11-10T00:58:02.378Z,9.75
2022-11-10T01:00:48.716Z,9.62
2022-11-10T01:03:35.422Z,9.57
2022-11-10T01:06:22.571Z,9.54
2022-11-10T01:09:08.269Z,9.54
2022-11-10T01:11:54.294Z,9.61
2022-11-10T01:14:40.081Z,9.57
2022-11-10T01:17:26.064Z,9.63
2022-11-10T01:20:12.527Z,9.64
2022-11-10T01:22:58.594Z,9.61
2022-11-10T01:25:45.279Z,9.59
2022-11-10T01:28:33.087Z,9.59
2022-11-10T01:31:22.085Z,9.66
2022-11-10T01:34:09.142Z,9.60
2022-11-10T01:36:55.268Z,9.55
2022-11-10T01:39:41.476Z,9.58
2022-11-10T01:42:43.643Z,9.52
2022-11-10T01:46:09.095Z,9.43
2022-11-10T01:49:02.344Z,9.37
2022-11-10T01:52:01.152Z,9.42
2022-11-10T01:54:49.893Z,9.47
2022-11-10T01:57:37.882Z,9.52
2022-11-10T02:00:24.411Z,9.56
2022-11-10T02:03:31.833Z,9.51
2022-11-10T02:06:20.282Z,9.48
2022-11-10T02:09:06.477Z,9.45
2022-11-10T02:11:56.539Z,9.35
2022-11-10T02:14:43.902Z,9.19
2022-11-10T02:17:30.044Z,9.18
2022-11-10T02:20:20.394Z,9.07
2022-11-10T02:23:33.646Z,9.14
2022-11-10T02:26:30.965Z,9.14
2022-11-10T02:29:17.050Z,9.08
2022-11-10T02:32:03.244Z,9.05
2022-11-10T02:34:49.378Z,8.94
2022-11-10T02:37:35.458Z,9.04
2022-11-10T02:40:21.534Z,9.02
2022-11-10T02:43:12.982Z,9.04
2022-11-10T02:45:59.344Z,8.96
2022-11-10T02:48:45.516Z,9.07
2022-11-10T02:51:31.839Z,9.00
2022-11-10T02:54:18.151Z,9.02
2022-11-10T02:57:03.909Z,9.09
2022-11-10T02:59:49.935Z,8.99
2022-11-10T03:02:36.062Z,9.01
2022-11-10T03:05:22.370Z,9.02
2022-11-10T03:08:08.581Z,8.98
2022-11-10T03:10:56.684Z,9.01
2022-11-10T03:14:00.335Z,9.10
2022-11-10T03:16:47.218Z,9.23
2022-11-10T03:19:33.233Z,8.90
2022-11-10T03:22:19.287Z,8.41
2022-11-10T03:25:06.596Z,8.33
2022-11-10T03:27:52.679Z,8.39
2022-11-10T03:30:39.495Z,8.02
2022-11-10T03:33:26.502Z,8.06
2022-11-10T03:36:12.301Z,8.05
2022-11-10T03:38:57.991Z,8.32
2022-11-10T03:41:43.906Z,8.17
2022-11-10T03:44:29.956Z,8.23
2022-11-10T03:47:16.192Z,8.39
2022-11-10T03:50:02.414Z,8.37
2022-11-10T03:52:49.008Z,8.12
2022-11-10T03:55:35.018Z,8.22
2022-11-10T03:58:21.043Z,8.28
2022-11-10T04:01:07.365Z,7.94
2022-11-10T04:03:53.423Z,7.82
2022-11-10T04:06:57.970Z,7.83
2022-11-10T04:09:43.969Z,7.74
2022-11-10T04:12:53.504Z,7.68
2022-11-10T04:15:45.139Z,7.72
2022-11-10T04:18:31.269Z,7.75
2022-11-10T04:21:17.650Z,7.65
2022-11-10T04:24:03.757Z,7.30
2022-11-10T04:26:50.244Z,7.29
2022-11-10T04:29:36.477Z,7.16
2022-11-10T04:32:22.307Z,7.09
2022-11-10T04:35:08.828Z,6.78
2022-11-10T04:37:55.318Z,6.73
2022-11-10T04:40:40.898Z,6.61
2022-11-10T04:43:27.287Z,6.65
2022-11-10T04:46:36.310Z,6.57
2022-11-10T04:49:22.120Z,6.79
2022-11-10T04:52:08.195Z,6.82
2022-11-10T04:54:54.190Z,6.90
2022-11-10T04:57:40.643Z,6.76
2022-11-10T05:00:27.178Z,6.89
2022-11-10T05:03:14.895Z,6.84
2022-11-10T05:06:01.058Z,6.85
2022-11-10T05:08:47.659Z,6.86
2022-11-10T05:11:33.534Z,6.74
2022-11-10T05:14:19.401Z,6.93
2022-11-10T05:17:05.433Z,6.93
2022-11-10T05:19:51.747Z,6.77
2022-11-10T05:22:37.704Z,6.95
2022-11-10T05:25:23.411Z,6.92
2022-11-10T05:28:12.133Z,6.84
2022-11-10T05:30:58.584Z,6.75
2022-11-10T05:33:44.649Z,7.10
2022-11-10T05:36:30.650Z,7.28
2022-11-10T05:39:16.478Z,7.21
2022-11-10T05:42:02.590Z,7.32
2022-11-10T05:44:48.376Z,7.29
2022-11-10T05:47:40.284Z,7.44
2022-11-10T05:50:26.836Z,7.46
2022-11-10T05:53:13.299Z,7.62
2022-11-10T05:55:59.095Z,7.56
2022-11-10T05:58:44.862Z,7.49
2022-11-10T06:01:30.686Z,7.51
2022-11-10T06:04:16.370Z,7.64
2022-11-10T06:07:02.796Z,7.86
2022-11-10T06:09:49.200Z,8.27
2022-11-10T06:12:36.666Z,8.18
2022-11-10T06:15:23.669Z,8.15
2022-11-10T06:18:09.410Z,8.30
2022-11-10T06:20:55.183Z,8.17
2022-11-10T06:23:40.934Z,8.30
2022-11-10T06:26:26.572Z,8.29
2022-11-10T06:29:12.568Z,8.54
2022-11-10T06:31:58.616Z,8.37
2022-11-10T06:34:44.822Z,8.37
2022-11-10T06:37:30.817Z,8.49
2022-11-10T06:40:17.009Z,8.62
2022-11-10T06:43:03.472Z,8.78
2022-11-10T06:45:49.888Z,8.79
2022-11-10T06:48:35.746Z,9.01
2022-11-10T06:51:21.665Z,9.06
2022-11-10T06:54:07.997Z,9.34
2022-11-10T06:56:53.726Z,9.56
2022-11-10T06:59:39.616Z,9.66
2022-11-10T07:02:25.420Z,9.66
2022-11-10T07:05:11.028Z,9.58
2022-11-10T07:08:01.251Z,9.81
2022-11-10T07:10:54.533Z,10.17
2022-11-10T07:13:40.684Z,10.25
2022-11-10T07:16:26.878Z,10.23
2022-11-10T07:19:12.922Z,9.99
2022-11-10T07:21:59.116Z,9.93
2022-11-10T07:24:44.927Z,10.13
2022-11-10T07:27:30.979Z,10.13
2022-11-10T07:30:17.072Z,10.17
2022-11-10T07:33:14.749Z,10.03
2022-11-10T07:36:03.982Z,9.95
2022-11-10T07:38:49.870Z,10.02
2022-11-10T07:41:35.858Z,10.51
2022-11-10T07:44:22.156Z,10.25
2022-11-10T07:47:07.964Z,10.66
2022-11-10T07:49:53.743Z,10.88
2022-11-10T07:52:40.384Z,11.06
2022-11-10T07:55:26.125Z,10.81
2022-11-10T07:58:15.819Z,10.43
2022-11-10T08:01:02.930Z,10.58
2022-11-10T08:03:48.899Z,10.73
2022-11-10T08:06:36.782Z,10.73
2022-11-10T08:09:23.241Z,10.49
2022-11-10T08:12:09.508Z,10.77
2022-11-10T08:14:55.202Z,11.02
2022-11-10T08:17:41.231Z,11.42
2022-11-10T08:20:27.371Z,11.37
2022-11-10T08:23:14.551Z,11.24
2022-11-10T08:26:01.976Z,11.31
2022-11-10T08:28:47.919Z,11.38
2022-11-10T08:31:34.386Z,11.71
2022-11-10T08:34:22.179Z,12.11
2022-11-10T08:37:08.090Z,12.04
2022-11-10T08:39:54.061Z,12.10
2022-11-10T08:42:40.056Z,12.24
2022-11-10T08:45:27.060Z,12.40
2022-11-10T08:48:19.332Z,12.76
2022-11-10T08:51:05.446Z,13.22
2022-11-10T08:53:51.553Z,13.66
2022-11-10T08:56:37.690Z,13.83
2022-11-10T08:59:23.789Z,13.84
2022-11-10T09:02:11.253Z,13.92
2022-11-10T09:04:57.006Z,14.45
2022-11-10T09:07:47.999Z,14.35
2022-11-10T09:10:38.348Z,15.01
2022-11-10T09:13:29.501Z,14.76
2022-11-10T09:16:16.734Z,14.88
2022-11-10T09:19:02.421Z,15.16
2022-11-10T09:21:48.693Z,15.41
2022-11-10T09:24:35.109Z,15.80
2022-11-10T09:27:21.128Z,16.08
2022-11-10T09:30:11.809Z,15.90
2022-11-10T09:33:02.254Z,16.45
2022-11-10T09:35:48.109Z,16.39
2022-11-10T09:38:35.202Z,16.62
2022-11-10T09:41:21.548Z,16.68
2022-11-10T09:44:39.060Z,16.68
2022-11-10T09:51:00.468Z,17.02
2022-11-10T09:54:03.364Z,17.39
2022-11-10T09:56:51.427Z,17.71
2022-11-10T09:59:37.671Z,17.80
2022-11-10T10:02:34.375Z,18.08
2022-11-10T10:05:53.792Z,18.04
2022-11-10T10:08:57.477Z,18.19
2022-11-10T10:11:52.230Z,18.13
2022-11-10T10:15:08.882Z,18.06
2022-11-10T10:18:30.445Z,17.91
2022-11-10T10:21:28.659Z,18.36
2022-11-10T10:24:22.132Z,18.56
2022-11-10T10:27:29.090Z,18.88
2022-11-10T10:30:21.179Z,18.49
2022-11-10T10:33:14.684Z,18.44
2022-11-10T10:36:10.213Z,18.65
2022-11-10T10:39:13.508Z,18.38
2022-11-10T10:41:59.834Z,18.34
2022-11-10T10:45:17.580Z,18.65
2022-11-10T10:48:03.885Z,19.12
2022-11-10T10:50:50.550Z,19.86
2022-11-10T10:53:47.940Z,19.92
2022-11-10T10:56:34.180Z,20.08
2022-11-10T10:59:23.158Z,20.55
2022-11-10T11:02:27.757Z,20.91
2022-11-10T11:05:20.193Z,20.68
2022-11-10T11:08:06.168Z,20.96
2022-11-10T11:10:51.969Z,21.48
2022-11-10T11:13:37.918Z,21.57
2022-11-10T11:16:23.954Z,21.38
2022-11-10T11:19:10.074Z,21.71
2022-11-10T11:22:46.987Z,22.43
2022-11-10T11:25:42.428Z,23.50
2022-11-10T11:29:09.842Z,23.79
2022-11-10T11:32:38.280Z,24.29
2022-11-10T11:35:43.321Z,24.54
2022-11-10T11:38:37.957Z,24.51
2022-11-10T11:41:41.493Z,24.35
2022-11-10T11:44:52.870Z,23.90
2022-11-10T11:48:15.465Z,24.08
2022-11-10T11:51:26.812Z,24.38
2022-11-10T11:54:34.211Z,24.80
2022-11-10T11:57:34.489Z,24.53
2022-11-10T12:00:24.811Z,24.46
2022-11-10T12:03:48.771Z,24.53
2022-11-10T12:06:40.116Z,24.15
2022-11-10T12:09:38.291Z,23.96
2022-11-10T12:12:30.947Z,24.05
2022-11-10T12:15:44.271Z,24.29
2022-11-10T12:18:37.817Z,24.61
2022-11-10T12:21:37.140Z,24.98
2022-11-10T12:24:59.950Z,25.20
2022-11-10T12:28:01.327Z,25.61
2022-11-10T12:30:50.728Z,25.72
2022-11-10T12:33:54.199Z,25.61
2022-11-10T12:36:40.433Z,25.70
2022-11-10T12:40:26.509Z,25.49
2022-11-10T12:43:58.946Z,25.15
2022-11-10T12:46:51.995Z,25.41
2022-11-10T12:49:45.094Z,25.65
2022-11-10T12:52:48.042Z,25.38
2022-11-10T12:55:44.924Z,25.77
2022-11-10T12:58:30.962Z,25.93
2022-11-10T13:01:20.901Z,25.81
2022-11-10T13:04:07.004Z,26.67
2022-11-10T13:07:10.255Z,26.40
2022-11-10T13:10:26.981Z,26.64
2022-11-10T13:13:15.402Z,26.38
2022-11-10T13:16:01.583Z,26.18
2022-11-10T13:18:50.273Z,26.18
2022-11-10T13:21:51.572Z,26.37
2022-11-10T13:24:42.963Z,25.93
2022-11-10T13:27:48.347Z,26.16
2022-11-10T13:30:46.321Z,26.57
2022-11-10T13:33:39.985Z,26.06
2022-11-10T13:36:47.444Z,25.88
2022-11-10T13:39:34.647Z,25.84
2022-11-10T13:42:24.108Z,25.88
2022-11-10T13:45:31.993Z,25.77
2022-11-10T13:48:51.024Z,25.21
2022-11-10T13:52:06.282Z,25.23
2022-11-10T13:55:45.169Z,25.31
2022-11-10T13:58:37.303Z,25.44
2022-11-10T14:01:30.541Z,25.62
2022-11-10T14:04:45.299Z,25.25
2022-11-10T14:07:39.791Z,25.02
2022-11-10T14:10:51.806Z,24.82
2022-11-10T14:13:51.236Z,24.75
2022-11-10T14:16:43.191Z,23.99
2022-11-10T14:19:46.345Z,23.68
2022-11-10T14:22:42.622Z,23.52
2022-11-10T14:25:37.526Z,23.38
2022-11-10T14:28:27.171Z,22.86
2022-11-10T14:31:25.660Z,22.46
2022-11-10T14:34:17.453Z,22.10
2022-11-10T14:37:24.924Z,21.78
2022-11-10T14:40:19.351Z,21.42
2022-11-10T14:43:05.141Z,21.24
2022-11-10T14:45:55.118Z,20.97
2022-11-10T14:48:41.131Z,20.69
2022-11-10T14:51:30.753Z,20.28
2022-11-10T14:54:26.770Z,19.89
2022-11-10T14:57:18.861Z,19.53
2022-11-10T15:00:16.714Z,19.16
2022-11-10T15:03:04.242Z,18.91
2022-11-10T15:05:50.484Z,18.63
2022-11-10T15:08:37.656Z,18.39
2022-11-10T15:12:12.358Z,18.34
2022-11-10T15:15:00.819Z,18.03
2022-11-10T15:17:51.620Z,17.71
2022-11-10T15:20:41.072Z,17.58
2022-11-10T15:23:33.953Z,17.41
2022-11-10T15:26:27.981Z,17.27
2022-11-10T15:29:23.408Z,17.08
2022-11-10T15:32:20.105Z,16.97
2022-11-10T15:35:23.606Z,16.80
2022-11-10T15:38:14.545Z,16.67
2022-11-10T15:41:11.670Z,16.60
2022-11-10T15:43:58.060Z,16.46
2022-11-10T15:46:44.885Z,16.42
2022-11-10T15:49:38.129Z,16.22
2022-11-10T15:52:24.648Z,16.15
2022-11-10T15:55:24.753Z,16.07
2022-11-10T15:58:21.857Z,16.01
2022-11-10T16:01:15.006Z,15.97
2022-11-10T16:04:01.020Z,15.92
2022-11-10T16:06:50.704Z,15.86
2022-11-10T16:09:38.699Z,15.81
2022-11-10T16:12:24.613Z,15.66
2022-11-10T16:15:22.239Z,15.64
2022-11-10T16:18:30.719Z,15.52
2022-11-10T16:21:22.506Z,15.43
2022-11-10T16:24:29.507Z,15.33
2022-11-10T16:27:16.406Z,15.26
2022-11-10T16:30:02.493Z,15.08
2022-11-10T16:32:49.577Z,15.07
2022-11-10T16:35:36.009Z,15.03
2022-11-10T16:38:30.484Z,15.04
2022-11-10T16:41:19.386Z,15.06
2022-11-10T16:44:15.987Z,14.96
2022-11-10T16:47:23.301Z,14.92
2022-11-10T16:50:59.707Z,14.87
2022-11-10T16:53:46.919Z,14.78
2022-11-10T16:56:32.666Z,14.66
2022-11-10T16:59:18.723Z,14.50
2022-11-10T17:02:04.764Z,14.43
2022-11-10T17:04:51.617Z,14.32
2022-11-10T17:07:39.127Z,14.34
2022-11-10T17:10:25.744Z,14.30
2022-11-10T17:13:12.913Z,14.14
2022-11-10T17:16:35.906Z,14.09
2022-11-10T17:19:28.100Z,13.88
2022-11-10T17:22:41.622Z,13.83
2022-11-10T17:25:31.915Z,13.80
2022-11-10T17:28:23.712Z,13.81
2022-11-10T17:31:09.948Z,13.74
2022-11-10T17:34:00.562Z,13.79
2022-11-10T17:36:46.612Z,13.82
2022-11-10T17:39:51.215Z,13.64
2022-11-10T17:42:41.470Z,13.50
2022-11-10T17:45:31.215Z,13.40
2022-11-10T17:48:23.780Z,13.41
2022-11-10T17:51:22.673Z,13.36
2022-11-10T17:54:16.625Z,13.42
2022-11-10T17:57:04.477Z,13.27
2022-11-10T17:59:50.324Z,13.24
2022-11-10T18:02:37.939Z,13.29
2022-11-10T18:05:23.991Z,13.24
2022-11-10T18:08:15.037Z,13.19
2022-11-10T18:11:02.560Z,13.15
2022-11-10T18:13:49.888Z,12.88
2022-11-10T18:16:35.756Z,12.50
2022-11-10T18:19:22.483Z,12.42
2022-11-10T18:22:13.458Z,12.44
2022-11-10T18:25:02.901Z,12.29
2022-11-10T18:27:50.956Z,12.37
2022-11-10T18:30:38.618Z,12.71
2022-11-10T18:33:24.913Z,12.14
2022-11-10T18:36:14.101Z,12.11
2022-11-10T18:39:00.851Z,12.33
2022-11-10T18:42:08.027Z,12.09
2022-11-10T18:44:56.285Z,11.55
2022-11-10T18:47:44.659Z,11.22
2022-11-10T18:50:34.295Z,11.17
2022-11-10T18:53:22.870Z,11.10
2022-11-10T18:56:14.242Z,11.07
2022-11-10T18:59:00.644Z,10.89
2022-11-10T19:01:48.203Z,10.99
2022-11-10T19:04:34.593Z,10.98
2022-11-10T19:07:20.541Z,10.98
2022-11-10T19:10:10.334Z,10.99
2022-11-10T19:12:57.265Z,11.00
2022-11-10T19:15:47.459Z,11.04
2022-11-10T19:18:35.422Z,11.00
2022-11-10T19:21:29.112Z,10.91
2022-11-10T19:24:25.820Z,10.76
2022-11-10T19:27:14.139Z,10.79
2022-11-10T19:30:00.713Z,10.66
2022-11-10T19:32:46.990Z,10.60
2022-11-10T19:35:33.467Z,10.64
2022-11-10T19:38:21.175Z,10.65
2022-11-10T19:41:23.894Z,10.55
2022-11-10T19:44:31.630Z,10.56
2022-11-10T19:47:21.022Z,10.46
2022-11-10T19:50:07.744Z,10.50
2022-11-10T19:52:54.533Z,10.50
2022-11-10T19:55:42.083Z,10.51
2022-11-10T19:58:28.723Z,10.48
2022-11-10T20:01:17.973Z,10.58
2022-11-10T20:04:08.842Z,10.47
2022-11-10T20:07:16.624Z,10.39
2022-11-10T20:10:07.381Z,10.39
2022-11-10T20:13:01.173Z,10.39
2022-11-10T20:15:47.795Z,10.45
2022-11-10T20:18:54.620Z,10.60
2022-11-10T20:21:40.952Z,10.52
2022-11-10T20:24:30.245Z,10.44
2022-11-10T20:27:27.460Z,10.40
2022-11-10T20:30:20.905Z,10.45
2022-11-10T20:33:10.069Z,10.36
2022-11-10T20:36:03.961Z,10.42
2022-11-10T20:38:52.416Z,10.47
2022-11-10T20:41:38.448Z,10.48
2022-11-10T20:44:24.969Z,10.24
2022-11-10T20:47:11.530Z,10.16
2022-11-10T20:49:58.112Z,9.82
2022-11-10T20:52:45.753Z,9.71
2022-11-10T20:55:52.658Z,9.64
2022-11-10T20:58:39.944Z,9.57
2022-11-10T21:01:26.344Z,9.55
2022-11-10T21:04:12.757Z,9.58
2022-11-10T21:06:59.242Z,9.50
2022-11-10T21:09:45.194Z,9.46
2022-11-10T21:12:49.716Z,9.54
2022-11-10T21:15:39.240Z,9.39
2022-11-10T21:18:43.240Z,9.42
2022-11-10T21:21:34.595Z,9.44
2022-11-10T21:24:21.286Z,9.40
2022-11-10T21:27:08.625Z,9.53
2022-11-10T21:29:58.931Z,9.38
2022-11-10T21:32:45.317Z,9.34
2022-11-10T21:35:36.788Z,9.07
2022-11-10T21:38:23.666Z,8.78
2022-11-10T21:41:09.635Z,8.52
2022-11-10T21:43:57.832Z,8.61
2022-11-10T21:46:44.783Z,8.52
2022-11-10T21:49:30.963Z,8.42
2022-11-10T21:52:16.757Z,8.41
2022-11-10T21:55:02.527Z,8.60
2022-11-10T21:57:49.161Z,8.78
2022-11-10T22:00:34.915Z,8.93
2022-11-10T22:03:21.218Z,8.79
2022-11-10T22:06:17.589Z,8.66
2022-11-10T22:09:04.901Z,8.52
2022-11-10T22:12:09.798Z,8.27
2022-11-10T22:15:15.771Z,8.22
2022-11-10T22:18:20.390Z,8.38
2022-11-10T22:21:09.170Z,8.37
2022-11-10T22:24:13.821Z,8.56
2022-11-10T22:27:03.281Z,8.54
2022-11-10T22:29:49.539Z,8.28
2022-11-10T22:32:35.507Z,8.19
2022-11-10T22:35:40.508Z,8.06
2022-11-10T22:38:26.821Z,8.25
2022-11-10T22:41:33.580Z,8.38
2022-11-10T22:44:24.740Z,8.47
2022-11-10T22:47:11.002Z,8.49
2022-11-10T22:49:56.769Z,8.53
2022-11-10T22:52:43.250Z,8.53
2022-11-10T22:55:29.266Z,8.48
2022-11-10T22:58:15.150Z,8.53
2022-11-10T23:01:06.316Z,8.51
2022-11-10T23:03:52.615Z,8.51
2022-11-10T23:06:38.891Z,8.47
2022-11-10T23:09:25.003Z,8.48
2022-11-10T23:12:10.920Z,8.38
2022-11-10T23:14:56.912Z,8.26
2022-11-10T23:17:43.016Z,8.24
2022-11-10T23:20:29.012Z,8.07
2022-11-10T23:23:15.105Z,8.08
2022-11-10T23:26:07.618Z,7.89
2022-11-10T23:28:54.358Z,7.91
2022-11-10T23:31:40.215Z,7.81
2022-11-10T23:34:26.310Z,7.72
2022-11-10T23:37:12.278Z,7.69
2022-11-10T23:39:59.534Z,7.48
2022-11-10T23:42:46.027Z,7.39
2022-11-10T23:46:00.219Z,7.43
2022-11-10T23:48:39.608Z,7.42
2022-11-10T23:51:26.837Z,7.41
2022-11-10T23:54:12.841Z,7.45
2022-11-10T23:56:58.980Z,7.37
2022-11-10T23:59:45.043Z,7.36
